sensor_id;sensor_type;location;lat;lon;timestamp;pressure;altitude;pressure_sealevel;temperature;humidity
57192;BME280;43052;52.588;13.396;2023-02-19T00:01:33;101019.06;;;5.92;77.99
57192;BME280;43052;52.588;13.396;2023-02-19T00:04:01;101027.69;;;5.91;77.76
57192;BME280;43052;52.588;13.396;2023-02-19T00:06:28;101028.59;;;5.93;78.12
57192;BME280;43052;52.588;13.396;2023-02-19T00:08:55;101017.38;;;5.94;77.90
57192;BME280;43052;52.588;13.396;2023-02-19T00:11:23;101024.31;;;5.93;78.07
57192;BME280;43052;52.588;13.396;2023-02-19T00:13:51;101022.56;;;5.94;77.95
57192;BME280;43052;52.588;13.396;2023-02-19T00:16:19;101013.91;;;5.93;78.00
57192;BME280;43052;52.588;13.396;2023-02-19T00:18:45;101009.50;;;5.88;78.00
57192;BME280;43052;52.588;13.396;2023-02-19T00:21:11;101019.16;;;5.96;77.74
57192;BME280;43052;52.588;13.396;2023-02-19T00:23:36;101020.97;;;5.99;77.81
57192;BME280;43052;52.588;13.396;2023-02-19T00:26:07;101019.09;;;5.93;77.51
57192;BME280;43052;52.588;13.396;2023-02-19T00:28:33;101022.56;;;5.92;77.54
57192;BME280;43052;52.588;13.396;2023-02-19T00:31:28;101018.19;;;5.90;77.77
57192;BME280;43052;52.588;13.396;2023-02-19T00:33:56;101014.75;;;5.92;77.78
57192;BME280;43052;52.588;13.396;2023-02-19T00:36:23;101000.88;;;5.90;77.75
57192;BME280;43052;52.588;13.396;2023-02-19T00:38:49;100999.94;;;5.87;77.59
57192;BME280;43052;52.588;13.396;2023-02-19T00:41:16;100987.75;;;5.83;77.68
57192;BME280;43052;52.588;13.396;2023-02-19T00:43:56;100986.78;;;5.76;77.68
57192;BME280;43052;52.588;13.396;2023-02-19T00:46:26;100989.31;;;5.71;77.44
57192;BME280;43052;52.588;13.396;2023-02-19T00:48:52;100990.06;;;5.65;77.32
57192;BME280;43052;52.588;13.396;2023-02-19T00:51:19;100993.38;;;5.58;77.68
57192;BME280;43052;52.588;13.396;2023-02-19T00:53:45;100998.63;;;5.61;77.57
57192;BME280;43052;52.588;13.396;2023-02-19T00:56:11;100996.00;;;5.60;77.66
57192;BME280;43052;52.588;13.396;2023-02-19T00:58:36;100992.50;;;5.58;77.37
57192;BME280;43052;52.588;13.396;2023-02-19T01:01:02;100986.44;;;5.57;77.65
57192;BME280;43052;52.588;13.396;2023-02-19T01:03:28;100979.50;;;5.55;77.78
57192;BME280;43052;52.588;13.396;2023-02-19T01:05:53;100985.63;;;5.60;77.54
57192;BME280;43052;52.588;13.396;2023-02-19T01:08:19;100985.69;;;5.63;77.59
57192;BME280;43052;52.588;13.396;2023-02-19T01:10:45;100986.56;;;5.63;77.58
57192;BME280;43052;52.588;13.396;2023-02-19T01:13:10;100973.50;;;5.60;77.68
57192;BME280;43052;52.588;13.396;2023-02-19T01:15:35;100971.88;;;5.64;77.54
57192;BME280;43052;52.588;13.396;2023-02-19T01:18:01;100971.13;;;5.71;77.26
57192;BME280;43052;52.588;13.396;2023-02-19T01:20:27;100972.00;;;5.73;77.46
57192;BME280;43052;52.588;13.396;2023-02-19T01:22:52;100964.16;;;5.69;77.37
57192;BME280;43052;52.588;13.396;2023-02-19T01:25:17;100952.75;;;5.60;77.30
57192;BME280;43052;52.588;13.396;2023-02-19T01:27:43;100961.44;;;5.62;77.36
57192;BME280;43052;52.588;13.396;2023-02-19T01:30:09;100958.84;;;5.61;77.20
57192;BME280;43052;52.588;13.396;2023-02-19T01:32:34;100956.16;;;5.56;76.90
57192;BME280;43052;52.588;13.396;2023-02-19T01:34:59;100945.72;;;5.53;77.34
57192;BME280;43052;52.588;13.396;2023-02-19T01:37:24;100936.09;;;5.47;77.40
57192;BME280;43052;52.588;13.396;2023-02-19T01:39:50;100923.03;;;5.43;77.39
57192;BME280;43052;52.588;13.396;2023-02-19T01:42:15;100925.50;;;5.35;77.56
57192;BME280;43052;52.588;13.396;2023-02-19T01:47:13;100939.22;;;5.29;77.40
57192;BME280;43052;52.588;13.396;2023-02-19T01:49:46;100936.56;;;5.25;77.62
57192;BME280;43052;52.588;13.396;2023-02-19T01:52:28;100933.09;;;5.24;77.60
57192;BME280;43052;52.588;13.396;2023-02-19T01:54:57;100924.38;;;5.21;77.54
57192;BME280;43052;52.588;13.396;2023-02-19T01:57:25;100927.88;;;5.23;77.47
57192;BME280;43052;52.588;13.396;2023-02-19T01:59:55;100919.13;;;5.17;77.57
57192;BME280;43052;52.588;13.396;2023-02-19T02:02:22;100921.75;;;5.19;77.54
57192;BME280;43052;52.588;13.396;2023-02-19T02:04:49;100914.00;;;5.21;77.65
57192;BME280;43052;52.588;13.396;2023-02-19T02:07:15;100903.59;;;5.19;77.59
57192;BME280;43052;52.588;13.396;2023-02-19T02:09:59;100900.06;;;5.15;77.67
57192;BME280;43052;52.588;13.396;2023-02-19T02:12:43;100893.88;;;5.09;77.62
57192;BME280;43052;52.588;13.396;2023-02-19T02:15:08;100900.78;;;5.07;77.38
57192;BME280;43052;52.588;13.396;2023-02-19T02:17:56;100902.41;;;5.03;77.68
57192;BME280;43052;52.588;13.396;2023-02-19T02:20:56;100913.56;;;4.97;77.61
57192;BME280;43052;52.588;13.396;2023-02-19T02:26:07;100905.66;;;4.91;77.83
57192;BME280;43052;52.588;13.396;2023-02-19T02:31:27;100911.75;;;4.95;77.90
57192;BME280;43052;52.588;13.396;2023-02-19T02:34:11;100911.81;;;4.96;77.69
57192;BME280;43052;52.588;13.396;2023-02-19T02:36:41;100918.84;;;5.02;77.89
57192;BME280;43052;52.588;13.396;2023-02-19T02:39:12;100898.03;;;4.99;78.16
57192;BME280;43052;52.588;13.396;2023-02-19T02:41:50;100910.25;;;5.05;77.93
57192;BME280;43052;52.588;13.396;2023-02-19T02:44:38;100898.97;;;5.02;77.92
57192;BME280;43052;52.588;13.396;2023-02-19T02:47:05;100903.25;;;5.00;78.14
57192;BME280;43052;52.588;13.396;2023-02-19T02:49:32;100902.41;;;5.01;77.89
57192;BME280;43052;52.588;13.396;2023-02-19T02:52:18;100904.16;;;5.02;77.86
57192;BME280;43052;52.588;13.396;2023-02-19T02:55:08;100905.84;;;5.00;78.09
57192;BME280;43052;52.588;13.396;2023-02-19T02:57:34;100912.84;;;5.06;78.05
57192;BME280;43052;52.588;13.396;2023-02-19T03:00:00;100918.88;;;5.05;77.92
57192;BME280;43052;52.588;13.396;2023-02-19T03:02:27;100917.09;;;5.01;78.16
57192;BME280;43052;52.588;13.396;2023-02-19T03:05:21;100922.28;;;5.01;77.89
57192;BME280;43052;52.588;13.396;2023-02-19T03:08:28;100921.38;;;5.00;78.05
57192;BME280;43052;52.588;13.396;2023-02-19T03:11:03;100922.19;;;4.96;77.87
57192;BME280;43052;52.588;13.396;2023-02-19T03:14:17;100926.38;;;4.91;78.00
57192;BME280;43052;52.588;13.396;2023-02-19T03:17:15;100931.44;;;4.83;78.03
57192;BME280;43052;52.588;13.396;2023-02-19T03:20:04;100931.19;;;4.73;78.06
57192;BME280;43052;52.588;13.396;2023-02-19T03:22:33;100938.91;;;4.69;78.25
57192;BME280;43052;52.588;13.396;2023-02-19T03:25:11;100930.13;;;4.63;78.16
57192;BME280;43052;52.588;13.396;2023-02-19T03:28:03;100935.22;;;4.60;78.14
57192;BME280;43052;52.588;13.396;2023-02-19T03:30:34;100940.25;;;4.52;77.78
57192;BME280;43052;52.588;13.396;2023-02-19T03:33:08;100945.16;;;4.41;78.00
57192;BME280;43052;52.588;13.396;2023-02-19T03:35:43;100947.59;;;4.32;78.07
57192;BME280;43052;52.588;13.396;2023-02-19T03:38:15;100935.97;;;4.16;77.88
57192;BME280;43052;52.588;13.396;2023-02-19T03:40:55;100941.91;;;4.12;77.73
57192;BME280;43052;52.588;13.396;2023-02-19T03:43:39;100945.22;;;4.06;77.52
57192;BME280;43052;52.588;13.396;2023-02-19T03:46:10;100944.16;;;3.98;77.38
57192;BME280;43052;52.588;13.396;2023-02-19T03:48:45;100951.81;;;3.93;77.30
57192;BME280;43052;52.588;13.396;2023-02-19T03:54:26;100951.66;;;3.87;77.26
57192;BME280;43052;52.588;13.396;2023-02-19T03:57:06;100946.50;;;3.87;76.94
57192;BME280;43052;52.588;13.396;2023-02-19T03:59:45;100946.47;;;3.85;77.15
57192;BME280;43052;52.588;13.396;2023-02-19T04:02:17;100951.75;;;3.90;77.28
57192;BME280;43052;52.588;13.396;2023-02-19T04:05:11;100952.63;;;3.90;77.24
57192;BME280;43052;52.588;13.396;2023-02-19T04:07:42;100955.94;;;3.85;77.23
57192;BME280;43052;52.588;13.396;2023-02-19T04:10:09;100955.81;;;3.80;77.33
57192;BME280;43052;52.588;13.396;2023-02-19T04:12:38;100961.72;;;3.74;77.61
57192;BME280;43052;52.588;13.396;2023-02-19T04:15:11;100960.75;;;3.71;77.51
57192;BME280;43052;52.588;13.396;2023-02-19T04:17:44;100964.19;;;3.70;77.61
57192;BME280;43052;52.588;13.396;2023-02-19T04:20:12;100961.59;;;3.70;77.69
57192;BME280;43052;52.588;13.396;2023-02-19T04:22:39;100972.00;;;3.73;77.72
57192;BME280;43052;52.588;13.396;2023-02-19T04:25:06;100972.72;;;3.67;77.43
57192;BME280;43052;52.588;13.396;2023-02-19T04:27:35;100973.56;;;3.66;78.02
57192;BME280;43052;52.588;13.396;2023-02-19T04:30:01;100979.50;;;3.62;77.49
57192;BME280;43052;52.588;13.396;2023-02-19T04:32:26;100967.28;;;3.56;77.65
57192;BME280;43052;52.588;13.396;2023-02-19T04:34:51;100977.75;;;3.61;77.85
57192;BME280;43052;52.588;13.396;2023-02-19T04:37:16;100972.44;;;3.56;77.79
57192;BME280;43052;52.588;13.396;2023-02-19T04:39:42;100974.25;;;3.59;77.55
57192;BME280;43052;52.588;13.396;2023-02-19T04:42:09;100985.63;;;3.66;77.62
57192;BME280;43052;52.588;13.396;2023-02-19T04:44:34;100984.81;;;3.67;77.47
57192;BME280;43052;52.588;13.396;2023-02-19T04:46:59;100990.91;;;3.70;77.62
57192;BME280;43052;52.588;13.396;2023-02-19T04:49:25;100977.72;;;3.59;77.87
57192;BME280;43052;52.588;13.396;2023-02-19T04:51:50;100995.25;;;3.71;77.72
57192;BME280;43052;52.588;13.396;2023-02-19T04:54:15;100991.75;;;3.69;77.78
57192;BME280;43052;52.588;13.396;2023-02-19T04:56:40;101000.22;;;3.64;77.76
57192;BME280;43052;52.588;13.396;2023-02-19T04:59:05;101001.13;;;3.64;77.83
57192;BME280;43052;52.588;13.396;2023-02-19T05:01:31;101002.81;;;3.64;77.71
57192;BME280;43052;52.588;13.396;2023-02-19T05:03:56;100997.56;;;3.60;77.59
57192;BME280;43052;52.588;13.396;2023-02-19T05:06:21;100991.47;;;3.58;77.62
57192;BME280;43052;52.588;13.396;2023-02-19T05:08:47;101003.59;;;3.59;77.63
57192;BME280;43052;52.588;13.396;2023-02-19T05:11:12;101006.03;;;3.55;77.93
57192;BME280;43052;52.588;13.396;2023-02-19T05:13:38;101013.72;;;3.53;77.71
57192;BME280;43052;52.588;13.396;2023-02-19T05:16:12;101006.84;;;3.52;77.99
57192;BME280;43052;52.588;13.396;2023-02-19T05:18:38;100999.94;;;3.53;77.80
57192;BME280;43052;52.588;13.396;2023-02-19T05:21:04;101004.16;;;3.49;77.79
57192;BME280;43052;52.588;13.396;2023-02-19T05:23:30;100987.59;;;3.42;77.92
57192;BME280;43052;52.588;13.396;2023-02-19T05:25:55;100997.25;;;3.50;77.82
57192;BME280;43052;52.588;13.396;2023-02-19T05:28:20;100979.72;;;3.38;78.04
57192;BME280;43052;52.588;13.396;2023-02-19T05:30:52;100999.72;;;3.45;77.92
57192;BME280;43052;52.588;13.396;2023-02-19T05:33:19;100995.50;;;3.49;78.04
57192;BME280;43052;52.588;13.396;2023-02-19T05:35:47;101002.31;;;3.45;77.92
57192;BME280;43052;52.588;13.396;2023-02-19T05:38:13;101007.56;;;3.48;77.96
57192;BME280;43052;52.588;13.396;2023-02-19T05:40:39;101003.94;;;3.41;78.01
57192;BME280;43052;52.588;13.396;2023-02-19T05:43:05;101001.28;;;3.38;78.18
57192;BME280;43052;52.588;13.396;2023-02-19T05:45:31;101006.59;;;3.43;78.10
57192;BME280;43052;52.588;13.396;2023-02-19T05:47:57;101004.75;;;3.40;78.27
57192;BME280;43052;52.588;13.396;2023-02-19T05:50:22;101004.03;;;3.44;78.25
57192;BME280;43052;52.588;13.396;2023-02-19T05:52:47;101000.47;;;3.39;78.41
57192;BME280;43052;52.588;13.396;2023-02-19T05:55:12;101005.63;;;3.39;78.37
57192;BME280;43052;52.588;13.396;2023-02-19T05:57:42;101015.97;;;3.39;78.31
57192;BME280;43052;52.588;13.396;2023-02-19T06:00:09;101013.41;;;3.41;78.39
57192;BME280;43052;52.588;13.396;2023-02-19T06:02:35;101006.63;;;3.44;78.60
57192;BME280;43052;52.588;13.396;2023-02-19T06:05:01;100996.38;;;3.48;78.28
57192;BME280;43052;52.588;13.396;2023-02-19T06:07:26;100993.84;;;3.51;78.50
57192;BME280;43052;52.588;13.396;2023-02-19T06:09:51;100990.44;;;3.52;78.08
57192;BME280;43052;52.588;13.396;2023-02-19T06:12:17;100998.47;;;3.63;78.23
57192;BME280;43052;52.588;13.396;2023-02-19T06:14:42;101000.06;;;3.57;78.04
57192;BME280;43052;52.588;13.396;2023-02-19T06:17:07;100993.13;;;3.55;78.24
57192;BME280;43052;52.588;13.396;2023-02-19T06:19:32;101007.94;;;3.62;78.29
57192;BME280;43052;52.588;13.396;2023-02-19T06:21:58;101002.88;;;3.65;78.06
57192;BME280;43052;52.588;13.396;2023-02-19T06:24:23;101002.78;;;3.62;78.17
57192;BME280;43052;52.588;13.396;2023-02-19T06:26:48;101012.19;;;3.60;77.91
57192;BME280;43052;52.588;13.396;2023-02-19T06:29:15;101014.78;;;3.60;78.10
57192;BME280;43052;52.588;13.396;2023-02-19T06:31:40;101025.25;;;3.65;78.11
57192;BME280;43052;52.588;13.396;2023-02-19T06:34:05;101029.38;;;3.58;77.91
57192;BME280;43052;52.588;13.396;2023-02-19T06:36:31;101038.91;;;3.59;78.03
57192;BME280;43052;52.588;13.396;2023-02-19T06:39:00;101047.59;;;3.63;78.05
57192;BME280;43052;52.588;13.396;2023-02-19T06:41:25;101051.03;;;3.61;78.09
57192;BME280;43052;52.588;13.396;2023-02-19T06:43:50;101052.84;;;3.64;77.99
57192;BME280;43052;52.588;13.396;2023-02-19T06:46:17;101065.09;;;3.71;78.01
57192;BME280;43052;52.588;13.396;2023-02-19T06:48:43;101055.44;;;3.64;78.01
57192;BME280;43052;52.588;13.396;2023-02-19T06:51:11;101053.81;;;3.68;78.10
57192;BME280;43052;52.588;13.396;2023-02-19T06:53:37;101069.59;;;3.77;78.01
57192;BME280;43052;52.588;13.396;2023-02-19T06:56:18;101083.47;;;3.81;77.64
57192;BME280;43052;52.588;13.396;2023-02-19T06:58:44;101073.13;;;3.81;78.01
57192;BME280;43052;52.588;13.396;2023-02-19T07:01:10;101087.97;;;3.88;77.81
57192;BME280;43052;52.588;13.396;2023-02-19T07:03:35;101086.56;;;3.99;77.91
57192;BME280;43052;52.588;13.396;2023-02-19T07:06:00;101074.59;;;4.04;77.86
57192;BME280;43052;52.588;13.396;2023-02-19T07:08:25;101075.88;;;4.20;77.62
57192;BME280;43052;52.588;13.396;2023-02-19T07:10:55;101089.41;;;4.44;77.28
57192;BME280;43052;52.588;13.396;2023-02-19T07:13:20;101093.91;;;4.51;77.12
57192;BME280;43052;52.588;13.396;2023-02-19T07:15:46;101093.00;;;4.50;76.92
57192;BME280;43052;52.588;13.396;2023-02-19T07:18:11;101099.78;;;4.44;76.78
57192;BME280;43052;52.588;13.396;2023-02-19T07:20:36;101117.94;;;4.45;76.62
57192;BME280;43052;52.588;13.396;2023-02-19T07:23:02;101113.56;;;4.43;76.44
57192;BME280;43052;52.588;13.396;2023-02-19T07:25:27;101122.25;;;4.45;76.30
57192;BME280;43052;52.588;13.396;2023-02-19T07:27:52;101109.34;;;4.48;76.53
57192;BME280;43052;52.588;13.396;2023-02-19T07:30:17;101120.31;;;4.73;76.24
57192;BME280;43052;52.588;13.396;2023-02-19T07:32:43;101119.72;;;4.83;75.75
57192;BME280;43052;52.588;13.396;2023-02-19T07:35:09;101132.34;;;5.06;75.62
57192;BME280;43052;52.588;13.396;2023-02-19T07:37:35;101135.41;;;5.27;75.34
57192;BME280;43052;52.588;13.396;2023-02-19T07:40:00;101137.28;;;5.33;74.76
57192;BME280;43052;52.588;13.396;2023-02-19T07:42:25;101135.63;;;5.38;74.37
57192;BME280;43052;52.588;13.396;2023-02-19T07:44:50;101147.09;;;5.48;74.16
57192;BME280;43052;52.588;13.396;2023-02-19T07:47:16;101140.25;;;5.50;73.69
57192;BME280;43052;52.588;13.396;2023-02-19T07:49:41;101145.88;;;5.73;73.08
57192;BME280;43052;52.588;13.396;2023-02-19T07:52:06;101151.75;;;6.04;72.57
57192;BME280;43052;52.588;13.396;2023-02-19T07:54:31;101156.66;;;6.36;72.14
57192;BME280;43052;52.588;13.396;2023-02-19T07:56:57;101150.25;;;6.66;71.19
57192;BME280;43052;52.588;13.396;2023-02-19T07:59:22;101168.22;;;7.06;69.86
57192;BME280;43052;52.588;13.396;2023-02-19T08:01:47;101167.09;;;7.50;69.22
57192;BME280;43052;52.588;13.396;2023-02-19T08:04:31;101168.63;;;8.02;67.69
57192;BME280;43052;52.588;13.396;2023-02-19T08:06:56;101181.34;;;8.54;66.04
57192;BME280;43052;52.588;13.396;2023-02-19T08:09:22;101180.13;;;9.15;64.74
57192;BME280;43052;52.588;13.396;2023-02-19T08:11:48;101177.06;;;9.90;62.60
57192;BME280;43052;52.588;13.396;2023-02-19T08:14:32;101180.63;;;10.25;61.37
57192;BME280;43052;52.588;13.396;2023-02-19T08:16:57;101185.88;;;10.26;59.01
57192;BME280;43052;52.588;13.396;2023-02-19T08:19:22;101186.84;;;10.55;59.38
57192;BME280;43052;52.588;13.396;2023-02-19T08:21:48;101199.03;;;11.33;57.31
57192;BME280;43052;52.588;13.396;2023-02-19T08:24:14;101204.03;;;12.12;55.08
57192;BME280;43052;52.588;13.396;2023-02-19T08:26:39;101218.78;;;12.38;53.36
57192;BME280;43052;52.588;13.396;2023-02-19T08:29:05;101213.41;;;12.55;52.44
57192;BME280;43052;52.588;13.396;2023-02-19T08:31:31;101222.47;;;13.27;50.92
57192;BME280;43052;52.588;13.396;2023-02-19T08:33:57;101224.69;;;13.71;49.30
57192;BME280;43052;52.588;13.396;2023-02-19T08:36:22;101238.56;;;13.87;48.77
57192;BME280;43052;52.588;13.396;2023-02-19T08:38:47;101226.09;;;14.64;46.21
57192;BME280;43052;52.588;13.396;2023-02-19T08:41:13;101229.91;;;15.03;45.55
57192;BME280;43052;52.588;13.396;2023-02-19T08:43:39;101233.63;;;16.33;43.33
57192;BME280;43052;52.588;13.396;2023-02-19T08:46:06;101243.09;;;17.53;40.94
57192;BME280;43052;52.588;13.396;2023-02-19T08:48:34;101240.50;;;18.44;39.41
57192;BME280;43052;52.588;13.396;2023-02-19T08:51:01;101250.47;;;18.93;37.27
57192;BME280;43052;52.588;13.396;2023-02-19T08:53:29;101259.19;;;17.44;38.09
57192;BME280;43052;52.588;13.396;2023-02-19T08:55:54;101265.16;;;14.96;41.45
57192;BME280;43052;52.588;13.396;2023-02-19T08:58:19;101257.91;;;14.48;42.67
57192;BME280;43052;52.588;13.396;2023-02-19T09:00:50;101271.47;;;13.31;44.63
57192;BME280;43052;52.588;13.396;2023-02-19T09:03:15;101275.69;;;12.14;47.56
57192;BME280;43052;52.588;13.396;2023-02-19T09:05:40;101280.19;;;11.35;48.83
57192;BME280;43052;52.588;13.396;2023-02-19T09:08:05;101282.66;;;10.35;50.56
57192;BME280;43052;52.588;13.396;2023-02-19T09:10:31;101294.81;;;10.33;51.48
57192;BME280;43052;52.588;13.396;2023-02-19T09:12:56;101300.28;;;11.09;50.47
57192;BME280;43052;52.588;13.396;2023-02-19T09:15:21;101288.94;;;11.58;49.40
57192;BME280;43052;52.588;13.396;2023-02-19T09:17:51;101292.34;;;11.98;49.21
57192;BME280;43052;52.588;13.396;2023-02-19T09:20:16;101291.69;;;13.25;47.45
57192;BME280;43052;52.588;13.396;2023-02-19T09:22:42;101300.09;;;14.45;43.93
57192;BME280;43052;52.588;13.396;2023-02-19T09:25:07;101301.06;;;13.55;44.94
57192;BME280;43052;52.588;13.396;2023-02-19T09:27:32;101300.94;;;12.42;47.27
57192;BME280;43052;52.588;13.396;2023-02-19T09:29:57;101303.78;;;11.32;48.23
57192;BME280;43052;52.588;13.396;2023-02-19T09:32:23;101306.16;;;10.34;50.88
57192;BME280;43052;52.588;13.396;2023-02-19T09:34:48;101302.88;;;10.92;51.00
57192;BME280;43052;52.588;13.396;2023-02-19T09:37:13;101318.59;;;11.09;49.93
57192;BME280;43052;52.588;13.396;2023-02-19T09:39:39;101326.41;;;10.81;51.15
57192;BME280;43052;52.588;13.396;2023-02-19T09:42:14;101319.47;;;11.49;49.93
57192;BME280;43052;52.588;13.396;2023-02-19T09:44:44;101328.19;;;11.24;49.59
57192;BME280;43052;52.588;13.396;2023-02-19T09:47:26;101324.66;;;11.83;48.86
57192;BME280;43052;52.588;13.396;2023-02-19T09:49:59;101328.97;;;12.33;47.12
57192;BME280;43052;52.588;13.396;2023-02-19T09:52:30;101331.69;;;11.76;47.12
57192;BME280;43052;52.588;13.396;2023-02-19T09:55:00;101335.09;;;12.25;47.03
57192;BME280;43052;52.588;13.396;2023-02-19T09:57:29;101332.56;;;12.03;46.03
57192;BME280;43052;52.588;13.396;2023-02-19T10:00:02;101338.50;;;12.48;45.71
57192;BME280;43052;52.588;13.396;2023-02-19T10:02:27;101342.19;;;11.59;46.38
57192;BME280;43052;52.588;13.396;2023-02-19T10:04:55;101339.50;;;10.95;47.71
57192;BME280;43052;52.588;13.396;2023-02-19T10:07:42;101363.72;;;10.40;48.67
57192;BME280;43052;52.588;13.396;2023-02-19T10:12:36;101353.41;;;10.76;47.68
57192;BME280;43052;52.588;13.396;2023-02-19T10:15:13;101366.63;;;11.70;46.47
57192;BME280;43052;52.588;13.396;2023-02-19T10:17:40;101366.47;;;12.56;45.90
57192;BME280;43052;52.588;13.396;2023-02-19T10:20:12;101372.13;;;15.61;41.10
57192;BME280;43052;52.588;13.396;2023-02-19T10:22:38;101367.34;;;17.17;38.06
57192;BME280;43052;52.588;13.396;2023-02-19T10:25:04;101364.75;;;18.81;35.37
57192;BME280;43052;52.588;13.396;2023-02-19T10:27:29;101375.91;;;18.62;33.77
57192;BME280;43052;52.588;13.396;2023-02-19T10:29:56;101374.47;;;17.13;35.96
57192;BME280;43052;52.588;13.396;2023-02-19T10:32:23;101369.69;;;16.01;37.13
57192;BME280;43052;52.588;13.396;2023-02-19T10:35:09;101392.78;;;15.89;36.50
57192;BME280;43052;52.588;13.396;2023-02-19T10:37:41;101389.84;;;14.94;38.67
57192;BME280;43052;52.588;13.396;2023-02-19T10:40:14;101402.91;;;14.25;39.47
57192;BME280;43052;52.588;13.396;2023-02-19T10:42:44;101410.31;;;13.83;39.91
57192;BME280;43052;52.588;13.396;2023-02-19T10:45:20;101414.97;;;13.53;40.23
57192;BME280;43052;52.588;13.396;2023-02-19T10:47:47;101416.63;;;13.61;40.60
57192;BME280;43052;52.588;13.396;2023-02-19T10:50:25;101416.44;;;13.88;40.96
57192;BME280;43052;52.588;13.396;2023-02-19T10:52:53;101405.94;;;16.38;37.27
57192;BME280;43052;52.588;13.396;2023-02-19T10:57:47;101430.59;;;15.29;36.45
57192;BME280;43052;52.588;13.396;2023-02-19T11:02:40;101429.50;;;11.95;41.43
57192;BME280;43052;52.588;13.396;2023-02-19T11:07:42;101452.16;;;9.80;46.16
57192;BME280;43052;52.588;13.396;2023-02-19T11:10:19;101454.19;;;9.24;47.18
57192;BME280;43052;52.588;13.396;2023-02-19T11:12:48;101462.44;;;8.84;47.45
57192;BME280;43052;52.588;13.396;2023-02-19T11:15:21;101479.50;;;8.60;48.29
57192;BME280;43052;52.588;13.396;2023-02-19T11:18:32;101479.66;;;8.73;48.76
57192;BME280;43052;52.588;13.396;2023-02-19T11:21:02;101474.75;;;8.96;48.17
57192;BME280;43052;52.588;13.396;2023-02-19T11:23:31;101487.09;;;9.09;48.28
57192;BME280;43052;52.588;13.396;2023-02-19T11:26:04;101490.56;;;9.08;48.08
57192;BME280;43052;52.588;13.396;2023-02-19T11:28:35;101488.75;;;9.01;48.46
57192;BME280;43052;52.588;13.396;2023-02-19T11:31:21;101482.69;;;9.02;48.89
57192;BME280;43052;52.588;13.396;2023-02-19T11:34:01;101493.16;;;9.07;48.21
57192;BME280;43052;52.588;13.396;2023-02-19T11:36:37;101486.94;;;8.96;47.85
57192;BME280;43052;52.588;13.396;2023-02-19T11:47:58;101483.22;;;8.80;49.03
57192;BME280;43052;52.588;13.396;2023-02-19T11:50:45;101492.50;;;9.25;48.58
57192;BME280;43052;52.588;13.396;2023-02-19T11:53:22;101491.16;;;9.61;48.24
57192;BME280;43052;52.588;13.396;2023-02-19T11:56:23;101488.63;;;9.72;47.66
57192;BME280;43052;52.588;13.396;2023-02-19T11:58:57;101493.81;;;9.64;47.59
57192;BME280;43052;52.588;13.396;2023-02-19T12:01:29;101495.41;;;9.53;48.08
57192;BME280;43052;52.588;13.396;2023-02-19T12:10:17;101508.47;;;8.81;48.65
57192;BME280;43052;52.588;13.396;2023-02-19T12:15:59;101528.97;;;8.04;49.83
57192;BME280;43052;52.588;13.396;2023-02-19T12:18:39;101523.91;;;7.62;50.42
57192;BME280;43052;52.588;13.396;2023-02-19T12:21:25;101524.25;;;7.35;51.23
57192;BME280;43052;52.588;13.396;2023-02-19T12:26:26;101529.00;;;7.13;51.87
57192;BME280;43052;52.588;13.396;2023-02-19T12:32:01;101534.69;;;7.36;52.21
57192;BME280;43052;52.588;13.396;2023-02-19T12:35:02;101529.59;;;7.43;51.91
57192;BME280;43052;52.588;13.396;2023-02-19T12:40:54;101539.94;;;6.97;50.94
57192;BME280;43052;52.588;13.396;2023-02-19T12:43:22;101546.25;;;6.68;51.42
57192;BME280;43052;52.588;13.396;2023-02-19T12:45:55;101540.78;;;6.57;51.46
57192;BME280;43052;52.588;13.396;2023-02-19T12:48:24;101549.00;;;6.76;51.70
57192;BME280;43052;52.588;13.396;2023-02-19T12:50:58;101543.19;;;6.88;51.72
57192;BME280;43052;52.588;13.396;2023-02-19T12:53:33;101550.03;;;6.84;52.01
57192;BME280;43052;52.588;13.396;2023-02-19T12:56:08;101556.78;;;6.74;52.24
57192;BME280;43052;52.588;13.396;2023-02-19T12:58:39;101546.94;;;6.61;52.35
57192;BME280;43052;52.588;13.396;2023-02-19T13:01:12;101550.94;;;6.48;52.55
57192;BME280;43052;52.588;13.396;2023-02-19T13:03:47;101551.66;;;6.41;52.87
57192;BME280;43052;52.588;13.396;2023-02-19T13:09:14;101566.50;;;6.47;52.80
57192;BME280;43052;52.588;13.396;2023-02-19T13:11:48;101565.09;;;6.59;52.26
57192;BME280;43052;52.588;13.396;2023-02-19T13:14:27;101573.66;;;6.55;51.47
57192;BME280;43052;52.588;13.396;2023-02-19T13:16:59;101568.16;;;6.43;51.47
57192;BME280;43052;52.588;13.396;2023-02-19T13:19:25;101561.16;;;6.39;51.71
57192;BME280;43052;52.588;13.396;2023-02-19T13:22:01;101564.81;;;6.47;51.86
57192;BME280;43052;52.588;13.396;2023-02-19T13:24:47;101562.34;;;6.53;51.40
57192;BME280;43052;52.588;13.396;2023-02-19T13:30:20;101567.81;;;6.66;51.68
57192;BME280;43052;52.588;13.396;2023-02-19T13:32:54;101581.13;;;6.78;51.59
57192;BME280;43052;52.588;13.396;2023-02-19T13:38:16;101575.06;;;7.17;50.89
57192;BME280;43052;52.588;13.396;2023-02-19T13:44:40;101555.38;;;7.30;48.52
57192;BME280;43052;52.588;13.396;2023-02-19T13:50:43;101579.22;;;7.50;48.54
57192;BME280;43052;52.588;13.396;2023-02-19T13:56:51;101530.97;;;7.25;47.41
57192;BME280;43052;52.588;13.396;2023-02-19T13:59:45;101546.84;;;7.36;47.67
57192;BME280;43052;52.588;13.396;2023-02-19T14:09:50;101612.31;;;7.16;46.71
57192;BME280;43052;52.588;13.396;2023-02-19T14:12:34;101601.16;;;6.82;47.51
57192;BME280;43052;52.588;13.396;2023-02-19T14:15:38;101620.19;;;6.81;47.94
57192;BME280;43052;52.588;13.396;2023-02-19T14:21:37;101619.59;;;6.56;48.71
57192;BME280;43052;52.588;13.396;2023-02-19T14:24:04;101617.63;;;6.46;49.09